Time;durP1;ratioP1;P1;durP2;ratioP2;P2;SDS_P1;SDS_P2;PMS_P1;PMS_P2;Temp;Humidity;BMP_temperature;BMP_pressure;BME280_temperature;BME280_humidity;BME280_pressure;Samples;Min_cycle;Max_cycle;Signal;HPM_P1;HPM_P2
2022/12/17 13:06:55;;;;;;;62.92;39.10;;;0.60;99.90;;;;;;5016587;28;20163;-65
2022/12/17 13:09:37;;;;;;;64.55;40.03;;;0.60;99.90;;;;;;5017645;28;20049;-65
2022/12/17 13:12:03;;;;;;;66.25;40.17;;;0.50;99.90;;;;;;5018514;28;20542;-65
2022/12/17 13:14:47;;;;;;;68.40;42.60;;;0.50;99.90;;;;;;5020194;28;20052;-65
2022/12/17 13:17:15;;;;;;;68.22;40.15;;;0.50;99.90;;;;;;5015312;28;20111;-66
2022/12/17 13:19:46;;;;;;;68.68;42.20;;;0.50;99.90;;;;;;5021137;28;20496;-65
2022/12/17 13:22:14;;;;;;;64.22;40.40;;;0.40;99.90;;;;;;5019872;28;20053;-66
2022/12/17 13:24:48;;;;;;;70.93;42.15;;;0.40;99.90;;;;;;5020832;28;20053;-65
2022/12/17 13:27:32;;;;;;;72.57;42.40;;;0.50;99.90;;;;;;5018957;28;20042;-65
2022/12/17 13:30:10;;;;;;;65.05;39.22;;;0.40;99.90;;;;;;5031412;28;20059;-66
2022/12/17 13:33:00;;;;;;;65.85;39.72;;;0.40;99.90;;;;;;5020261;28;20045;-65
2022/12/17 13:35:46;;;;;;;63.35;38.50;;;0.30;99.90;;;;;;5023239;28;20052;-65
2022/12/17 13:38:20;;;;;;;64.45;39.20;;;0.30;99.90;;;;;;5018045;28;20191;-66
2022/12/17 13:41:07;;;;;;;63.22;38.33;;;0.20;99.90;;;;;;5028202;28;20077;-65
2022/12/17 13:43:58;;;;;;;69.38;40.15;;;0.10;99.90;;;;;;5016085;28;20053;-65
2022/12/17 13:46:40;;;;;;;68.70;39.58;;;0.10;99.90;;;;;;5014120;28;20132;-65
2022/12/17 13:49:16;;;;;;;67.90;39.95;;;0.10;99.90;;;;;;5021308;28;20033;-65
2022/12/17 13:51:42;;;;;;;67.97;40.13;;;0.00;99.90;;;;;;5017040;28;20080;-65
2022/12/17 13:54:16;;;;;;;69.93;40.20;;;0.00;99.90;;;;;;5018950;28;20784;-65
2022/12/17 13:56:42;;;;;;;;;;;0.00;99.90;;;;;;5021066;28;20447;-65
2022/12/17 13:59:20;;;;;;;70.80;40.42;;;-0.10;99.90;;;;;;5019086;28;19960;-66
2022/12/17 14:01:48;;;;;;;64.57;38.17;;;-0.10;99.90;;;;;;5023251;28;20145;-65
2022/12/17 14:04:28;;;;;;;65.03;38.00;;;-0.10;99.90;;;;;;5014696;28;20076;-65
2022/12/17 14:07:01;;;;;;;68.55;39.40;;;-0.20;99.90;;;;;;5019059;28;20136;-63
2022/12/17 14:09:41;;;;;;;70.57;39.70;;;-0.20;99.90;;;;;;5017336;28;20052;-63
2022/12/17 14:12:24;;;;;;;68.57;39.15;;;-0.30;99.90;;;;;;5024008;28;20155;-64
2022/12/17 14:14:59;;;;;;;68.25;37.58;;;-0.20;99.90;;;;;;5022036;28;20068;-64
2022/12/17 14:17:28;;;;;;;68.20;40.03;;;-0.30;99.90;;;;;;5022227;28;20071;-64
2022/12/17 14:20:15;;;;;;;70.13;39.88;;;-0.30;99.90;;;;;;5024763;28;20037;-64
2022/12/17 14:22:45;;;;;;;68.38;39.15;;;-0.30;99.90;;;;;;5018948;28;20049;-64
2022/12/17 14:25:17;;;;;;;65.63;36.40;;;-0.30;99.90;;;;;;5024791;28;20131;-64
2022/12/17 14:28:41;;;;;;;69.68;38.38;;;-0.30;99.90;;;;;;5021178;28;20064;-64
2022/12/17 14:31:17;;;;;;;63.13;36.40;;;-0.40;99.90;;;;;;5006351;28;20060;-64
2022/12/17 14:33:42;;;;;;;64.65;35.95;;;-0.40;99.90;;;;;;5021381;28;20265;-64
2022/12/17 14:36:15;;;;;;;65.70;37.10;;;-0.40;99.90;;;;;;5021668;28;20052;-64
2022/12/17 14:38:57;;;;;;;62.63;36.05;;;-0.50;99.90;;;;;;5017643;28;20038;-65
2022/12/17 14:44:18;;;;;;;66.05;36.08;;;-0.50;99.90;;;;;;5018472;28;20038;-64
2022/12/17 14:46:44;;;;;;;70.93;38.35;;;-0.60;99.90;;;;;;5023259;28;20120;-64
2022/12/17 14:49:20;;;;;;;70.10;38.90;;;-0.60;99.90;;;;;;5018544;28;20471;-65
2022/12/17 14:51:48;;;;;;;68.88;36.90;;;-0.60;99.90;;;;;;5021058;28;20046;-64
2022/12/17 14:54:20;;;;;;;71.70;38.58;;;-0.70;99.90;;;;;;5021812;28;20041;-65
2022/12/17 14:56:47;;;;;;;68.45;37.20;;;-0.70;99.90;;;;;;5021694;28;20045;-63
2022/12/17 14:59:29;;;;;;;70.45;37.83;;;-0.70;99.90;;;;;;5017346;28;20462;-64
2022/12/17 15:01:55;;;;;;;71.15;37.42;;;-0.70;99.90;;;;;;5020573;28;20041;-64
2022/12/17 15:04:21;;;;;;;72.00;36.78;;;-0.70;99.90;;;;;;5021756;28;20041;-64
2022/12/17 15:06:48;;;;;;;72.88;37.22;;;-0.70;99.90;;;;;;5020392;28;20045;-64
2022/12/17 15:09:14;;;;;;;73.22;37.35;;;-0.70;99.90;;;;;;5019187;28;20038;-65
2022/12/17 15:11:39;;;;;;;74.30;39.20;;;-0.70;99.90;;;;;;5021313;28;20057;-64
2022/12/17 15:14:05;;;;;;;73.28;38.72;;;-0.60;99.90;;;;;;5023813;28;20042;-64
2022/12/17 15:16:31;;;;;;;71.53;37.00;;;-0.70;99.90;;;;;;5017551;28;20026;-65
2022/12/17 15:18:57;;;;;;;70.00;36.30;;;-0.70;99.90;;;;;;5018313;28;20125;-64
2022/12/17 15:21:24;;;;;;;74.85;37.80;;;-0.70;99.90;;;;;;5019506;28;20033;-64
2022/12/17 15:23:49;;;;;;;71.57;36.75;;;-0.70;99.90;;;;;;5022057;28;20117;-65
2022/12/17 15:26:16;;;;;;;72.95;38.05;;;-0.80;99.90;;;;;;5018537;28;20112;-64
2022/12/17 15:28:42;;;;;;;71.05;36.22;;;-0.80;99.90;;;;;;5024155;28;20339;-64
2022/12/17 15:31:11;;;;;;;68.25;33.67;;;-0.80;99.90;;;;;;5017046;28;20500;-64
2022/12/17 15:33:36;;;;;;;71.53;36.35;;;-0.80;99.90;;;;;;5017144;28;20044;-64
2022/12/17 15:36:15;;;;;;;77.57;39.42;;;-0.90;99.90;;;;;;5016565;28;20037;-64
2022/12/17 15:38:40;;;;;;;74.95;38.28;;;-0.90;99.90;;;;;;5023587;28;20084;-64
2022/12/17 15:43:50;;;;;;;72.78;37.00;;;-0.90;99.90;;;;;;5014138;28;20545;-64
2022/12/17 15:46:16;;;;;;;76.47;35.70;;;-0.90;99.90;;;;;;5011140;28;20041;-64
2022/12/17 15:48:42;;;;;;;72.72;35.80;;;-1.00;99.90;;;;;;5014195;28;20187;-64
2022/12/17 15:51:08;;;;;;;78.90;38.15;;;-1.00;99.90;;;;;;5008682;28;20113;-64
2022/12/17 15:53:34;;;;;;;75.10;38.25;;;-1.00;99.90;;;;;;5021959;28;20056;-65
2022/12/17 15:56:02;;;;;;;74.50;37.95;;;-1.00;99.90;;;;;;5016452;28;20034;-64
2022/12/17 15:58:28;;;;;;;75.00;35.47;;;-1.10;99.90;;;;;;5015405;28;20045;-64
2022/12/17 16:00:53;;;;;;;73.95;37.08;;;-1.10;99.90;;;;;;5018612;28;20041;-64
2022/12/17 16:03:19;;;;;;;71.30;34.45;;;-1.20;99.90;;;;;;5017468;28;20046;-64
2022/12/17 16:05:45;;;;;;;73.13;34.83;;;-1.20;99.90;;;;;;5023142;28;20389;-64
2022/12/17 16:08:11;;;;;;;77.05;36.72;;;-1.20;99.90;;;;;;5023041;28;20049;-64
2022/12/17 16:10:37;;;;;;;76.50;36.35;;;-1.20;99.90;;;;;;5013789;28;20042;-64
2022/12/17 16:13:04;;;;;;;76.85;36.00;;;-1.20;99.90;;;;;;5019265;28;20037;-64
2022/12/17 16:15:29;;;;;;;79.07;36.28;;;-1.20;99.90;;;;;;5018203;28;20104;-63
2022/12/17 16:17:56;;;;;;;80.05;37.97;;;-1.30;99.90;;;;;;5015992;28;20195;-64
2022/12/17 16:20:22;;;;;;;81.85;37.47;;;-1.30;99.90;;;;;;5019183;28;20099;-65
2022/12/17 16:22:48;;;;;;;82.20;36.67;;;-1.30;99.90;;;;;;5021425;28;20049;-64
2022/12/17 16:25:14;;;;;;;80.13;37.60;;;-1.30;99.90;;;;;;5018325;28;20068;-65
2022/12/17 16:27:40;;;;;;;82.10;40.50;;;-1.30;99.90;;;;;;5019953;28;20034;-64
2022/12/17 16:30:06;;;;;;;79.72;37.13;;;-1.30;99.90;;;;;;5020256;28;20052;-65
2022/12/17 16:32:32;;;;;;;76.25;36.33;;;-1.30;99.90;;;;;;5019709;28;20045;-65
2022/12/17 16:34:58;;;;;;;75.65;36.03;;;-1.30;99.90;;;;;;5018668;28;20179;-65
2022/12/17 16:37:24;;;;;;;77.93;36.85;;;-1.30;99.90;;;;;;5020526;28;20162;-64
2022/12/17 16:39:50;;;;;;;78.93;37.60;;;-1.30;99.90;;;;;;5020535;28;20481;-64
2022/12/17 16:42:16;;;;;;;74.75;35.35;;;-1.30;99.90;;;;;;5021720;28;20393;-65
2022/12/17 16:44:41;;;;;;;83.50;36.22;;;-1.30;99.90;;;;;;5013416;28;20052;-64
2022/12/17 16:47:08;;;;;;;80.13;36.65;;;-1.30;99.90;;;;;;5018098;28;20388;-64
2022/12/17 16:49:34;;;;;;;78.07;36.60;;;-1.30;99.90;;;;;;5018814;28;20057;-64
2022/12/17 16:52:01;;;;;;;77.90;36.05;;;-1.40;99.90;;;;;;5025381;28;20417;-65
2022/12/17 16:54:31;;;;;;;79.15;37.53;;;-1.40;99.90;;;;;;5021741;28;20042;-65
2022/12/17 16:57:00;;;;;;;78.57;36.38;;;-1.30;99.90;;;;;;5020543;28;20429;-64
2022/12/17 16:59:26;;;;;;;81.10;37.25;;;-1.30;99.90;;;;;;5019752;28;20054;-65
2022/12/17 17:01:52;;;;;;;71.97;35.08;;;-1.40;99.90;;;;;;5022551;28;20393;-65
2022/12/17 17:04:20;;;;;;;77.07;36.65;;;-1.40;99.90;;;;;;5016731;28;20042;-65
2022/12/17 17:06:51;;;;;;;72.40;35.63;;;-1.40;99.90;;;;;;5031913;28;20513;-65
2022/12/17 17:09:18;;;;;;;70.35;33.75;;;-1.40;99.90;;;;;;5019674;28;20041;-65
2022/12/17 17:11:44;;;;;;;73.32;35.30;;;-1.50;99.90;;;;;;5017872;28;20045;-64
2022/12/17 17:14:10;;;;;;;74.32;35.70;;;-1.50;99.90;;;;;;5017939;28;20033;-64
2022/12/17 17:16:36;;;;;;;77.05;35.67;;;-1.60;99.90;;;;;;5017044;28;20052;-64
2022/12/17 17:19:03;;;;;;;72.13;33.90;;;-1.60;99.90;;;;;;5015385;28;20398;-65
2022/12/17 17:21:37;;;;;;;75.57;34.40;;;-1.60;99.90;;;;;;5015076;28;20049;-65
2022/12/17 17:24:08;;;;;;;77.97;34.78;;;-1.60;99.90;;;;;;5021007;28;20046;-65
2022/12/17 17:26:35;;;;;;;68.47;33.33;;;-1.60;99.90;;;;;;5017671;28;20099;-64
2022/12/17 17:29:01;;;;;;;73.47;34.72;;;-1.70;99.90;;;;;;5021608;28;20045;-64
2022/12/17 17:31:27;;;;;;;66.15;32.22;;;-1.70;99.90;;;;;;5016574;28;20052;-64
2022/12/17 17:33:53;;;;;;;69.00;34.05;;;-1.70;99.90;;;;;;5020572;28;20482;-65
2022/12/17 17:36:23;;;;;;;69.32;33.40;;;-1.70;99.90;;;;;;5019749;28;20128;-65
2022/12/17 17:38:51;;;;;;;78.95;35.50;;;-1.70;99.90;;;;;;5017691;28;20038;-65
2022/12/17 17:41:19;;;;;;;77.68;35.72;;;-1.70;99.90;;;;;;5026175;28;20524;-65
2022/12/17 17:43:45;;;;;;;79.65;36.53;;;-1.70;99.90;;;;;;5015770;28;20061;-64
2022/12/17 17:46:13;;;;;;;79.38;36.38;;;-1.70;99.90;;;;;;5021745;28;20041;-65
2022/12/17 17:48:40;;;;;;;74.90;35.28;;;-1.70;99.90;;;;;;5022686;28;20041;-64
2022/12/17 17:51:11;;;;;;;79.40;36.10;;;-1.70;99.90;;;;;;5026216;28;20064;-65
2022/12/17 17:53:38;;;;;;;78.70;36.05;;;-1.70;99.90;;;;;;5022851;28;20121;-65
2022/12/17 17:56:06;;;;;;;80.22;35.97;;;-1.80;99.90;;;;;;5020678;28;20077;-65
2022/12/17 17:58:33;;;;;;;85.93;37.83;;;-1.70;99.90;;;;;;5022930;28;20026;-65
2022/12/17 18:01:05;;;;;;;83.93;37.28;;;-1.70;99.90;;;;;;5023861;28;20113;-64
2022/12/17 18:03:31;;;;;;;83.05;37.60;;;-1.80;99.90;;;;;;5023040;28;20053;-64
2022/12/17 18:06:01;;;;;;;87.07;39.35;;;-1.70;99.90;;;;;;5018566;28;20061;-65
2022/12/17 18:08:29;;;;;;;82.43;38.88;;;-1.70;99.90;;;;;;5016832;28;20042;-65
2022/12/17 18:10:57;;;;;;;77.45;36.92;;;-1.80;99.90;;;;;;5020392;28;20125;-65
2022/12/17 18:16:07;;;;;;;80.07;36.88;;;-1.70;99.90;;;;;;5014756;28;20090;-65
2022/12/17 18:18:33;;;;;;;80.88;37.83;;;-1.70;99.90;;;;;;5019075;28;20049;-65
2022/12/17 18:21:10;;;;;;;83.90;36.83;;;-1.70;99.90;;;;;;5014348;28;20100;-65
2022/12/17 18:23:37;;;;;;;80.60;38.47;;;-1.80;99.90;;;;;;5019963;28;20042;-65
2022/12/17 18:26:17;;;;;;;82.07;39.15;;;-1.80;99.90;;;;;;5016948;28;20127;-64
2022/12/17 18:28:45;;;;;;;83.35;39.88;;;-1.70;99.90;;;;;;5020351;28;20048;-65
2022/12/17 18:31:17;;;;;;;89.43;40.30;;;-1.80;99.90;;;;;;5021976;28;20512;-64
2022/12/17 18:33:49;;;;;;;85.78;41.45;;;-1.80;99.90;;;;;;5027107;28;20052;-64
2022/12/17 18:36:20;;;;;;;84.93;41.22;;;-1.70;99.90;;;;;;5021859;28;20033;-65
2022/12/17 18:38:47;;;;;;;87.60;41.80;;;-1.80;99.90;;;;;;5020978;28;20213;-65
2022/12/17 18:44:05;;;;;;;85.38;39.88;;;-1.80;99.90;;;;;;5025094;28;20045;-65
2022/12/17 18:46:32;;;;;;;73.05;38.80;;;-1.80;99.90;;;;;;5027163;28;20045;-65
2022/12/17 18:49:01;;;;;;;78.18;38.95;;;-1.80;99.90;;;;;;5020989;28;20038;-64
2022/12/17 18:51:27;;;;;;;77.57;39.55;;;-1.80;99.90;;;;;;5016852;28;20049;-64
2022/12/17 18:53:59;;;;;;;73.60;39.45;;;-1.90;99.90;;;;;;5021913;28;20113;-65
2022/12/17 18:56:29;;;;;;;76.97;38.83;;;-1.90;99.90;;;;;;5018880;28;20037;-65
2022/12/17 18:58:55;;;;;;;77.47;40.53;;;-1.90;99.90;;;;;;5024704;28;20465;-65
2022/12/17 19:01:33;;;;;;;74.18;39.78;;;-1.90;99.90;;;;;;5017951;28;20037;-65
2022/12/17 19:04:04;;;;;;;78.20;41.20;;;-2.00;99.90;;;;;;5021976;28;20092;-65
2022/12/17 19:06:31;;;;;;;79.13;42.22;;;-1.90;99.90;;;;;;5020459;28;20489;-64
2022/12/17 19:08:57;;;;;;;76.63;42.22;;;-2.00;99.90;;;;;;5017643;28;20500;-64
2022/12/17 19:11:23;;;;;;;74.13;43.97;;;-2.00;99.90;;;;;;5018662;28;20038;-65
2022/12/17 19:13:49;;;;;;;81.70;42.90;;;-2.00;99.90;;;;;;5017928;28;20053;-64
2022/12/17 19:16:17;;;;;;;81.50;45.03;;;-2.00;99.90;;;;;;5022998;28;20117;-65
2022/12/17 19:18:43;;;;;;;80.13;43.22;;;-2.00;99.90;;;;;;5022354;28;20034;-65
2022/12/17 19:21:15;;;;;;;79.00;42.50;;;-2.00;99.90;;;;;;5018243;28;20038;-65
2022/12/17 19:23:41;;;;;;;81.65;42.90;;;-2.00;99.90;;;;;;5031820;28;20042;-65
2022/12/17 19:26:19;;;;;;;76.25;43.90;;;-2.00;99.90;;;;;;5017450;28;20135;-65
2022/12/17 19:28:48;;;;;;;79.13;43.30;;;-2.00;99.90;;;;;;5025374;28;20067;-65
2022/12/17 19:31:15;;;;;;;73.07;43.88;;;-2.00;99.90;;;;;;5020444;28;20493;-65
2022/12/17 19:33:41;;;;;;;71.80;42.28;;;-2.00;99.90;;;;;;5020643;28;20112;-65
2022/12/17 19:36:15;;;;;;;77.70;43.63;;;-2.10;99.90;;;;;;5021125;28;20601;-65
2022/12/17 19:38:41;;;;;;;78.22;42.85;;;-2.10;99.90;;;;;;5020467;28;20072;-65
2022/12/17 19:41:10;;;;;;;71.75;42.53;;;-2.10;99.90;;;;;;5018435;28;20453;-65
2022/12/17 19:43:36;;;;;;;79.75;43.45;;;-2.10;99.90;;;;;;5015794;28;20038;-65
2022/12/17 19:46:04;;;;;;;73.43;43.03;;;-2.10;99.90;;;;;;5021388;28;20034;-65
2022/12/17 19:48:32;;;;;;;80.50;44.95;;;-2.10;99.90;;;;;;5021845;28;20441;-65
2022/12/17 19:50:58;;;;;;;80.75;45.25;;;-2.10;99.90;;;;;;5005138;28;20040;-65
2022/12/17 19:53:26;;;;;;;78.30;43.22;;;-2.10;99.90;;;;;;5020290;28;20492;-65
2022/12/17 19:55:56;;;;;;;83.35;45.95;;;-2.10;99.90;;;;;;5019339;28;20046;-65
2022/12/17 19:58:23;;;;;;;81.75;45.88;;;-2.10;99.90;;;;;;5021564;28;20146;-64
2022/12/17 20:00:50;;;;;;;85.25;44.90;;;-2.20;99.90;;;;;;5023834;28;20059;-65
2022/12/17 20:03:16;;;;;;;85.75;45.20;;;-2.10;99.90;;;;;;5024849;28;20037;-65
2022/12/17 20:05:45;;;;;;;78.50;43.95;;;-2.20;99.90;;;;;;5021070;28;20038;-64
2022/12/17 20:08:11;;;;;;;83.03;44.20;;;-2.10;99.90;;;;;;5018619;28;20545;-65
2022/12/17 20:10:38;;;;;;;88.13;46.60;;;-2.10;99.90;;;;;;5019657;28;20077;-65
2022/12/17 20:13:04;;;;;;;92.35;47.00;;;-2.10;99.90;;;;;;5017236;28;20059;-65
2022/12/17 20:15:30;;;;;;;89.03;46.47;;;-2.10;99.90;;;;;;5019403;28;20034;-65
2022/12/17 20:17:55;;;;;;;97.57;50.05;;;-2.10;99.90;;;;;;5018669;28;20045;-65
2022/12/17 20:20:24;;;;;;;87.70;45.85;;;-2.10;99.90;;;;;;5018848;28;20049;-65
2022/12/17 20:22:50;;;;;;;92.18;46.33;;;-2.10;99.90;;;;;;5018767;28;20486;-65
2022/12/17 20:25:15;;;;;;;95.13;48.40;;;-2.10;99.90;;;;;;5017678;28;20053;-65
2022/12/17 20:27:43;;;;;;;85.75;45.15;;;-2.10;99.90;;;;;;5017469;28;20037;-65
2022/12/17 20:30:11;;;;;;;83.50;43.20;;;-2.20;99.90;;;;;;5011912;28;20470;-65
2022/12/17 20:32:37;;;;;;;86.60;44.22;;;-2.20;99.90;;;;;;5011870;28;20132;-65
2022/12/17 20:35:03;;;;;;;86.45;44.33;;;-2.20;99.90;;;;;;5015737;28;20139;-65
2022/12/17 20:37:29;;;;;;;81.80;41.10;;;-2.20;99.90;;;;;;5011292;28;20053;-65
2022/12/17 20:39:55;;;;;;;78.43;41.03;;;-2.20;99.90;;;;;;5013303;28;21750;-65
2022/12/17 20:42:21;;;;;;;79.25;40.05;;;-2.20;99.90;;;;;;5015786;28;20073;-65
2022/12/17 20:44:46;;;;;;;83.47;41.83;;;-2.30;99.90;;;;;;5019068;28;20045;-65
2022/12/17 20:47:12;;;;;;;82.68;40.60;;;-2.30;99.90;;;;;;5013938;28;20042;-65
2022/12/17 20:49:38;;;;;;;76.78;39.20;;;-2.40;99.90;;;;;;5018541;28;20030;-65
2022/12/17 20:52:03;;;;;;;80.72;39.63;;;-2.40;99.90;;;;;;5022801;28;20040;-65
2022/12/17 20:54:30;;;;;;;81.88;39.97;;;-2.40;99.90;;;;;;5019158;28;20042;-65
2022/12/17 20:56:56;;;;;;;86.40;40.88;;;-2.50;99.90;;;;;;5017667;28;20042;-65
2022/12/17 20:59:22;;;;;;;77.20;38.50;;;-2.50;99.90;;;;;;5022154;28;20379;-65
2022/12/17 21:01:48;;;;;;;81.05;40.45;;;-2.50;99.90;;;;;;5018314;28;20037;-65
2022/12/17 21:04:14;;;;;;;83.55;40.72;;;-2.50;99.90;;;;;;5024441;28;20273;-65
2022/12/17 21:06:42;;;;;;;82.72;42.75;;;-2.50;99.90;;;;;;5018146;28;20077;-65
2022/12/17 21:09:09;;;;;;;80.43;40.63;;;-2.50;99.90;;;;;;5018901;28;20485;-65
2022/12/17 21:11:37;;;;;;;83.15;40.17;;;-2.50;99.90;;;;;;5016302;28;20112;-65
2022/12/17 21:14:07;;;;;;;82.90;41.40;;;-2.50;99.90;;;;;;5016110;28;20111;-65
2022/12/17 21:16:35;;;;;;;95.18;43.25;;;-2.60;99.90;;;;;;5019658;28;20034;-65
2022/12/17 21:19:02;;;;;;;87.03;42.38;;;-2.50;99.90;;;;;;5019388;28;20403;-65
2022/12/17 21:21:32;;;;;;;92.93;45.17;;;-2.60;99.90;;;;;;5019063;28;20061;-65
2022/12/17 21:23:59;;;;;;;87.57;42.58;;;-2.60;99.90;;;;;;5017814;28;20041;-65
2022/12/17 21:26:30;;;;;;;83.90;42.05;;;-2.60;99.90;;;;;;5015402;28;20430;-64
2022/12/17 21:28:58;;;;;;;75.72;38.97;;;-2.60;99.90;;;;;;5019037;28;20049;-64
2022/12/17 21:31:33;;;;;;;83.60;41.25;;;-2.50;99.90;;;;;;5016165;28;20476;-64
2022/12/17 21:34:01;;;;;;;89.90;42.38;;;-2.60;99.90;;;;;;5018955;28;20040;-65
2022/12/17 21:36:28;;;;;;;88.50;42.72;;;-2.60;99.90;;;;;;5011704;28;20038;-65
2022/12/17 21:38:54;;;;;;;88.50;41.92;;;-2.60;99.90;;;;;;5020201;28;20046;-64
2022/12/17 21:41:29;;;;;;;88.15;44.08;;;-2.50;99.90;;;;;;5018630;28;20416;-64
2022/12/17 21:43:57;;;;;;;93.15;44.28;;;-2.60;99.90;;;;;;5015202;28;20060;-64
2022/12/17 21:46:29;;;;;;;101.45;44.80;;;-2.50;99.90;;;;;;5018996;28;20417;-65
2022/12/17 21:49:04;;;;;;;90.95;43.30;;;-2.50;99.90;;;;;;5017865;28;20430;-64
2022/12/17 21:51:32;;;;;;;90.63;43.70;;;-2.50;99.90;;;;;;5017973;28;20140;-64
2022/12/17 21:54:01;;;;;;;87.85;39.90;;;-2.50;99.90;;;;;;5014427;28;20461;-65
2022/12/17 21:56:28;;;;;;;84.93;40.83;;;-2.50;99.90;;;;;;5018396;28;20056;-64
2022/12/17 21:58:59;;;;;;;89.85;41.03;;;-2.50;99.90;;;;;;5023255;28;20034;-64
2022/12/17 22:01:27;;;;;;;93.65;42.15;;;-2.50;99.90;;;;;;5018655;28;20049;-64
2022/12/17 22:03:55;;;;;;;103.35;42.03;;;-2.50;99.90;;;;;;5017127;28;20450;-65
2022/12/17 22:06:24;;;;;;;92.07;41.35;;;-2.50;99.90;;;;;;5018785;28;20124;-65
2022/12/17 22:08:50;;;;;;;92.38;39.85;;;-2.60;99.90;;;;;;5017120;28;20056;-64
2022/12/17 22:11:19;;;;;;;88.40;42.22;;;-2.60;99.90;;;;;;5013725;28;20046;-64
2022/12/17 22:14:01;;;;;;;89.25;39.88;;;-2.60;99.90;;;;;;5017373;28;20410;-64
2022/12/17 22:16:41;;;;;;;88.22;37.45;;;-2.70;99.90;;;;;;5021723;28;20069;-65
2022/12/17 22:19:12;;;;;;;83.53;38.03;;;-2.60;99.90;;;;;;5020297;28;20404;-65
2022/12/17 22:21:39;;;;;;;83.93;37.63;;;-2.70;99.90;;;;;;5020303;28;20041;-65
2022/12/17 22:24:06;;;;;;;92.70;39.78;;;-2.70;99.90;;;;;;5019784;28;20045;-65
2022/12/17 22:26:35;;;;;;;87.00;39.95;;;-2.60;99.90;;;;;;5016380;28;20666;-64
2022/12/17 22:29:02;;;;;;;96.00;42.60;;;-2.70;99.90;;;;;;5015643;28;20555;-65
2022/12/17 22:34:12;;;;;;;84.18;37.47;;;-2.70;99.90;;;;;;5018554;28;20045;-65
2022/12/17 22:36:39;;;;;;;76.63;35.08;;;-2.70;99.90;;;;;;5024033;28;20505;-65
2022/12/17 22:39:10;;;;;;;74.50;35.05;;;-2.70;99.90;;;;;;5020256;28;20048;-64
2022/12/17 22:44:21;;;;;;;74.32;35.40;;;-2.70;99.90;;;;;;5019661;28;20087;-64
2022/12/17 22:46:47;;;;;;;77.30;34.97;;;-2.80;99.90;;;;;;5015345;28;20117;-64
2022/12/17 22:49:14;;;;;;;75.90;34.95;;;-2.80;99.90;;;;;;5012486;28;20057;-64
2022/12/17 22:51:40;;;;;;;78.28;33.90;;;-2.80;99.90;;;;;;5013788;28;20053;-65
2022/12/17 22:54:06;;;;;;;74.60;33.05;;;-2.80;99.90;;;;;;5014947;28;20429;-65
2022/12/17 22:56:34;;;;;;;74.18;34.03;;;-2.90;99.90;;;;;;5019583;28;20490;-65
2022/12/17 22:59:00;;;;;;;78.00;34.17;;;-2.90;99.90;;;;;;5021739;28;20592;-65
2022/12/17 23:01:25;;;;;;;79.15;34.97;;;-2.90;99.90;;;;;;5034181;28;20034;-65
2022/12/17 23:03:56;;;;;;;75.75;35.85;;;-2.90;99.90;;;;;;5021255;28;20463;-65
2022/12/17 23:06:22;;;;;;;73.80;32.78;;;-2.90;99.90;;;;;;5019314;28;20060;-65
2022/12/17 23:08:48;;;;;;;70.47;32.53;;;-3.00;99.90;;;;;;5036132;28;20183;-65
2022/12/17 23:11:21;;;;;;;80.15;34.72;;;-3.10;99.90;;;;;;5025345;28;20088;-65
2022/12/17 23:13:47;;;;;;;71.25;32.60;;;-3.10;99.90;;;;;;5021528;28;20471;-65
2022/12/17 23:16:12;;;;;;;75.60;33.30;;;-3.10;99.90;;;;;;5018009;28;20128;-65
2022/12/17 23:18:40;;;;;;;79.03;35.72;;;-3.10;99.90;;;;;;5020602;28;20121;-65
2022/12/17 23:21:06;;;;;;;87.13;36.42;;;-3.10;99.90;;;;;;5022500;28;20468;-65
2022/12/17 23:23:32;;;;;;;81.57;36.15;;;-3.10;99.90;;;;;;5021677;28;20095;-65
2022/12/17 23:26:05;;;;;;;93.25;37.45;;;-3.10;99.90;;;;;;5019836;28;20037;-65
2022/12/17 23:28:31;;;;;;;89.28;38.13;;;-3.10;99.90;;;;;;5021054;28;20415;-65
2022/12/17 23:30:56;;;;;;;83.85;37.03;;;-3.00;99.90;;;;;;5002444;28;20037;-65
2022/12/17 23:33:22;;;;;;;82.03;35.22;;;-3.00;99.90;;;;;;5016149;28;20132;-65
2022/12/17 23:35:48;;;;;;;84.95;35.33;;;-3.10;99.90;;;;;;5018300;28;20447;-65
2022/12/17 23:38:13;;;;;;;80.22;35.85;;;-3.10;99.90;;;;;;5007403;28;20049;-64
2022/12/17 23:40:39;;;;;;;88.90;34.90;;;-3.10;99.90;;;;;;5017340;28;20406;-65
2022/12/17 23:43:05;;;;;;;88.78;35.03;;;-3.20;99.90;;;;;;5019943;28;20045;-65
2022/12/17 23:45:30;;;;;;;86.43;37.05;;;-3.20;99.90;;;;;;5018417;28;20509;-65
2022/12/17 23:47:56;;;;;;;84.28;35.80;;;-3.20;99.90;;;;;;5020206;28;20518;-65
2022/12/17 23:50:22;;;;;;;82.47;36.08;;;-3.30;99.90;;;;;;5017840;28;20037;-65
2022/12/17 23:52:47;;;;;;;87.47;35.97;;;-3.30;99.90;;;;;;5019653;28;20042;-65
2022/12/17 23:55:13;;;;;;;84.60;37.92;;;-3.30;99.90;;;;;;5029629;28;20080;-65
2022/12/17 23:57:39;;;;;;;97.68;39.70;;;-3.30;99.90;;;;;;5034551;28;20381;-65
